Terminal Aerodrome Forecast
Issued by NWS Wichita, KS

Home | Current Version | Previous Version | Graphics & Text | Print | Product List | Glossary On
Versions: 1 2 3 4 5 6 7 8 9 10 11 12 13 14 15 16
000
FTUS43 KICT 210429 AAA
TAFICT
TAF AMD
KICT 210429Z 2104/2124 17010KT P6SM BKN250
     FM210530 17010KT P6SM VCTS BKN080CB
     FM210800 18010KT P6SM SCT080 BKN250
     FM211600 19013KT P6SM SCT070 BKN150=

USA.gov is the U.S. government's official web portal to all federal, state and local government web resources and services.